sensor_id;sensor_type;location;lat;lon;timestamp;P1;durP1;ratioP1;P2;durP2;ratioP2
26474;SDS011;14161;52.270;10.334;2023-06-22T00:01:22;8.00;;;6.82;;
26474;SDS011;14161;52.270;10.334;2023-06-22T00:03:48;7.82;;;7.05;;
26474;SDS011;14161;52.270;10.334;2023-06-22T00:06:13;8.23;;;7.38;;
26474;SDS011;14161;52.270;10.334;2023-06-22T00:08:39;8.20;;;7.40;;
26474;SDS011;14161;52.270;10.334;2023-06-22T00:11:05;7.68;;;6.97;;
26474;SDS011;14161;52.270;10.334;2023-06-22T00:13:31;7.82;;;7.13;;
26474;SDS011;14161;52.270;10.334;2023-06-22T00:15:56;7.80;;;7.10;;
26474;SDS011;14161;52.270;10.334;2023-06-22T00:18:21;7.65;;;6.95;;
26474;SDS011;14161;52.270;10.334;2023-06-22T00:20:47;9.10;;;7.95;;
26474;SDS011;14161;52.270;10.334;2023-06-22T00:23:12;8.57;;;7.68;;
26474;SDS011;14161;52.270;10.334;2023-06-22T00:25:39;7.78;;;6.97;;
26474;SDS011;14161;52.270;10.334;2023-06-22T00:28:07;7.68;;;5.70;;
26474;SDS011;14161;52.270;10.334;2023-06-22T00:30:35;6.80;;;6.15;;
26474;SDS011;14161;52.270;10.334;2023-06-22T00:33:01;7.45;;;6.55;;
26474;SDS011;14161;52.270;10.334;2023-06-22T00:35:26;9.73;;;6.88;;
26474;SDS011;14161;52.270;10.334;2023-06-22T00:37:59;9.98;;;6.28;;
26474;SDS011;14161;52.270;10.334;2023-06-22T00:40:30;6.85;;;5.68;;
26474;SDS011;14161;52.270;10.334;2023-06-22T00:42:56;7.95;;;6.28;;
26474;SDS011;14161;52.270;10.334;2023-06-22T00:45:25;7.70;;;6.88;;
26474;SDS011;14161;52.270;10.334;2023-06-22T00:47:55;7.35;;;6.65;;
26474;SDS011;14161;52.270;10.334;2023-06-22T00:50:22;10.98;;;6.90;;
26474;SDS011;14161;52.270;10.334;2023-06-22T00:52:51;9.27;;;7.20;;
26474;SDS011;14161;52.270;10.334;2023-06-22T00:55:18;8.20;;;7.40;;
26474;SDS011;14161;52.270;10.334;2023-06-22T00:57:47;8.40;;;7.60;;
26474;SDS011;14161;52.270;10.334;2023-06-22T01:00:13;9.63;;;7.45;;
26474;SDS011;14161;52.270;10.334;2023-06-22T01:02:42;9.25;;;7.65;;
26474;SDS011;14161;52.270;10.334;2023-06-22T01:05:11;8.40;;;7.70;;
26474;SDS011;14161;52.270;10.334;2023-06-22T01:10:22;8.27;;;7.47;;
26474;SDS011;14161;52.270;10.334;2023-06-22T01:12:53;10.10;;;7.55;;
26474;SDS011;14161;52.270;10.334;2023-06-22T01:15:30;9.00;;;8.10;;
26474;SDS011;14161;52.270;10.334;2023-06-22T01:18:17;8.52;;;7.78;;
26474;SDS011;14161;52.270;10.334;2023-06-22T01:20:44;9.07;;;8.15;;
26474;SDS011;14161;52.270;10.334;2023-06-22T01:26:08;9.07;;;8.23;;
26474;SDS011;14161;52.270;10.334;2023-06-22T01:28:49;8.25;;;7.40;;
26474;SDS011;14161;52.270;10.334;2023-06-22T01:31:19;8.75;;;7.82;;
26474;SDS011;14161;52.270;10.334;2023-06-22T01:33:47;8.98;;;7.90;;
26474;SDS011;14161;52.270;10.334;2023-06-22T01:36:15;9.13;;;8.23;;
26474;SDS011;14161;52.270;10.334;2023-06-22T01:38:42;8.85;;;8.00;;
26474;SDS011;14161;52.270;10.334;2023-06-22T01:41:07;8.93;;;8.02;;
26474;SDS011;14161;52.270;10.334;2023-06-22T01:43:34;9.18;;;7.85;;
26474;SDS011;14161;52.270;10.334;2023-06-22T01:46:01;8.57;;;7.78;;
26474;SDS011;14161;52.270;10.334;2023-06-22T01:48:30;10.15;;;7.60;;
26474;SDS011;14161;52.270;10.334;2023-06-22T01:50:55;9.25;;;8.40;;
26474;SDS011;14161;52.270;10.334;2023-06-22T01:53:21;8.93;;;7.53;;
26474;SDS011;14161;52.270;10.334;2023-06-22T01:55:50;8.27;;;7.47;;
26474;SDS011;14161;52.270;10.334;2023-06-22T01:58:16;10.52;;;7.57;;
26474;SDS011;14161;52.270;10.334;2023-06-22T02:00:44;7.70;;;6.93;;
26474;SDS011;14161;52.270;10.334;2023-06-22T02:03:32;7.85;;;7.05;;
26474;SDS011;14161;52.270;10.334;2023-06-22T02:06:07;8.25;;;7.45;;
26474;SDS011;14161;52.270;10.334;2023-06-22T02:08:44;7.82;;;7.05;;
26474;SDS011;14161;52.270;10.334;2023-06-22T02:11:13;6.75;;;6.05;;
26474;SDS011;14161;52.270;10.334;2023-06-22T02:13:44;9.60;;;7.60;;
26474;SDS011;14161;52.270;10.334;2023-06-22T02:16:10;7.55;;;6.85;;
26474;SDS011;14161;52.270;10.334;2023-06-22T02:18:39;8.38;;;7.53;;
26474;SDS011;14161;52.270;10.334;2023-06-22T02:21:11;8.48;;;7.63;;
26474;SDS011;14161;52.270;10.334;2023-06-22T02:23:36;9.13;;;7.47;;
26474;SDS011;14161;52.270;10.334;2023-06-22T02:26:02;8.57;;;7.68;;
26474;SDS011;14161;52.270;10.334;2023-06-22T02:28:31;10.75;;;7.70;;
26474;SDS011;14161;52.270;10.334;2023-06-22T02:30:57;7.57;;;6.85;;
26474;SDS011;14161;52.270;10.334;2023-06-22T02:33:22;7.65;;;6.85;;
26474;SDS011;14161;52.270;10.334;2023-06-22T02:35:48;8.18;;;7.40;;
26474;SDS011;14161;52.270;10.334;2023-06-22T02:38:14;16.15;;;7.80;;
26474;SDS011;14161;52.270;10.334;2023-06-22T02:40:40;8.18;;;7.30;;
26474;SDS011;14161;52.270;10.334;2023-06-22T02:43:05;12.43;;;7.47;;
26474;SDS011;14161;52.270;10.334;2023-06-22T02:45:31;11.55;;;7.72;;
26474;SDS011;14161;52.270;10.334;2023-06-22T02:47:57;10.10;;;7.97;;
26474;SDS011;14161;52.270;10.334;2023-06-22T02:50:23;11.60;;;8.38;;
26474;SDS011;14161;52.270;10.334;2023-06-22T02:52:49;12.27;;;8.38;;
26474;SDS011;14161;52.270;10.334;2023-06-22T02:55:15;13.77;;;8.05;;
26474;SDS011;14161;52.270;10.334;2023-06-22T02:57:51;10.00;;;7.28;;
26474;SDS011;14161;52.270;10.334;2023-06-22T03:00:20;9.32;;;6.90;;
26474;SDS011;14161;52.270;10.334;2023-06-22T03:02:49;9.98;;;7.75;;
26474;SDS011;14161;52.270;10.334;2023-06-22T03:05:16;9.25;;;8.23;;
26474;SDS011;14161;52.270;10.334;2023-06-22T03:07:44;9.80;;;8.15;;
26474;SDS011;14161;52.270;10.334;2023-06-22T03:10:10;11.98;;;8.10;;
26474;SDS011;14161;52.270;10.334;2023-06-22T03:12:40;9.48;;;7.78;;
26474;SDS011;14161;52.270;10.334;2023-06-22T03:15:07;9.80;;;7.35;;
26474;SDS011;14161;52.270;10.334;2023-06-22T03:17:34;11.55;;;7.28;;
26474;SDS011;14161;52.270;10.334;2023-06-22T03:20:00;12.05;;;7.78;;
26474;SDS011;14161;52.270;10.334;2023-06-22T03:22:26;11.32;;;7.47;;
26474;SDS011;14161;52.270;10.334;2023-06-22T03:24:51;8.82;;;7.78;;
26474;SDS011;14161;52.270;10.334;2023-06-22T03:27:16;8.15;;;6.72;;
26474;SDS011;14161;52.270;10.334;2023-06-22T03:29:43;10.68;;;8.00;;
26474;SDS011;14161;52.270;10.334;2023-06-22T03:32:10;9.88;;;7.45;;
26474;SDS011;14161;52.270;10.334;2023-06-22T03:34:36;9.00;;;7.47;;
26474;SDS011;14161;52.270;10.334;2023-06-22T03:37:01;10.85;;;7.57;;
26474;SDS011;14161;52.270;10.334;2023-06-22T03:39:28;9.13;;;7.40;;
26474;SDS011;14161;52.270;10.334;2023-06-22T03:41:53;11.15;;;7.47;;
26474;SDS011;14161;52.270;10.334;2023-06-22T03:44:19;9.88;;;6.65;;
26474;SDS011;14161;52.270;10.334;2023-06-22T03:46:44;9.15;;;7.38;;
26474;SDS011;14161;52.270;10.334;2023-06-22T03:49:13;7.70;;;6.82;;
26474;SDS011;14161;52.270;10.334;2023-06-22T03:51:38;7.78;;;6.97;;
26474;SDS011;14161;52.270;10.334;2023-06-22T03:54:04;7.68;;;6.10;;
26474;SDS011;14161;52.270;10.334;2023-06-22T03:56:29;8.18;;;6.63;;
26474;SDS011;14161;52.270;10.334;2023-06-22T03:58:55;8.57;;;6.60;;
26474;SDS011;14161;52.270;10.334;2023-06-22T04:01:20;8.82;;;6.43;;
26474;SDS011;14161;52.270;10.334;2023-06-22T04:03:45;6.93;;;6.22;;
26474;SDS011;14161;52.270;10.334;2023-06-22T04:06:13;7.50;;;6.68;;
26474;SDS011;14161;52.270;10.334;2023-06-22T04:08:39;6.80;;;6.05;;
26474;SDS011;14161;52.270;10.334;2023-06-22T04:11:04;8.45;;;6.53;;
26474;SDS011;14161;52.270;10.334;2023-06-22T04:13:30;9.50;;;6.88;;
26474;SDS011;14161;52.270;10.334;2023-06-22T04:15:55;8.43;;;6.68;;
26474;SDS011;14161;52.270;10.334;2023-06-22T04:18:21;9.50;;;6.53;;
26474;SDS011;14161;52.270;10.334;2023-06-22T04:20:46;8.95;;;6.07;;
26474;SDS011;14161;52.270;10.334;2023-06-22T04:23:12;6.70;;;5.97;;
26474;SDS011;14161;52.270;10.334;2023-06-22T04:25:38;8.40;;;6.55;;
26474;SDS011;14161;52.270;10.334;2023-06-22T04:28:04;8.20;;;7.05;;
26474;SDS011;14161;52.270;10.334;2023-06-22T04:30:29;7.78;;;6.90;;
26474;SDS011;14161;52.270;10.334;2023-06-22T04:32:56;7.80;;;6.38;;
26474;SDS011;14161;52.270;10.334;2023-06-22T04:35:23;6.93;;;6.07;;
26474;SDS011;14161;52.270;10.334;2023-06-22T04:37:49;7.30;;;6.50;;
26474;SDS011;14161;52.270;10.334;2023-06-22T04:40:15;7.45;;;6.63;;
26474;SDS011;14161;52.270;10.334;2023-06-22T04:42:40;11.13;;;6.82;;
26474;SDS011;14161;52.270;10.334;2023-06-22T04:45:17;9.18;;;7.00;;
26474;SDS011;14161;52.270;10.334;2023-06-22T04:47:43;6.60;;;6.00;;
26474;SDS011;14161;52.270;10.334;2023-06-22T04:50:13;7.90;;;7.15;;
26474;SDS011;14161;52.270;10.334;2023-06-22T04:52:39;7.82;;;7.13;;
26474;SDS011;14161;52.270;10.334;2023-06-22T04:55:05;7.95;;;7.00;;
26474;SDS011;14161;52.270;10.334;2023-06-22T04:57:31;6.55;;;5.70;;
26474;SDS011;14161;52.270;10.334;2023-06-22T04:59:59;7.32;;;6.57;;
26474;SDS011;14161;52.270;10.334;2023-06-22T05:02:37;7.68;;;6.18;;
26474;SDS011;14161;52.270;10.334;2023-06-22T05:05:05;8.05;;;6.63;;
26474;SDS011;14161;52.270;10.334;2023-06-22T05:07:35;9.30;;;6.10;;
26474;SDS011;14161;52.270;10.334;2023-06-22T05:10:01;6.88;;;5.88;;
26474;SDS011;14161;52.270;10.334;2023-06-22T05:12:29;6.97;;;6.28;;
26474;SDS011;14161;52.270;10.334;2023-06-22T05:14:55;7.10;;;6.00;;
26474;SDS011;14161;52.270;10.334;2023-06-22T05:17:21;7.50;;;6.43;;
26474;SDS011;14161;52.270;10.334;2023-06-22T05:19:49;6.68;;;6.05;;
26474;SDS011;14161;52.270;10.334;2023-06-22T05:22:15;6.32;;;5.82;;
26474;SDS011;14161;52.270;10.334;2023-06-22T05:24:40;8.88;;;7.15;;
26474;SDS011;14161;52.270;10.334;2023-06-22T05:27:06;7.43;;;6.25;;
26474;SDS011;14161;52.270;10.334;2023-06-22T05:29:32;7.43;;;6.68;;
26474;SDS011;14161;52.270;10.334;2023-06-22T05:31:57;6.80;;;6.05;;
26474;SDS011;14161;52.270;10.334;2023-06-22T05:34:23;6.90;;;6.20;;
26474;SDS011;14161;52.270;10.334;2023-06-22T05:36:48;7.68;;;6.38;;
26474;SDS011;14161;52.270;10.334;2023-06-22T05:39:14;7.88;;;5.70;;
26474;SDS011;14161;52.270;10.334;2023-06-22T05:41:40;5.80;;;5.30;;
26474;SDS011;14161;52.270;10.334;2023-06-22T05:44:06;7.13;;;5.65;;
26474;SDS011;14161;52.270;10.334;2023-06-22T05:46:31;8.18;;;6.30;;
26474;SDS011;14161;52.270;10.334;2023-06-22T05:48:57;10.05;;;5.80;;
26474;SDS011;14161;52.270;10.334;2023-06-22T05:51:22;5.40;;;4.90;;
26474;SDS011;14161;52.270;10.334;2023-06-22T05:53:48;6.57;;;5.90;;
26474;SDS011;14161;52.270;10.334;2023-06-22T05:56:15;6.05;;;5.50;;
26474;SDS011;14161;52.270;10.334;2023-06-22T05:58:41;6.63;;;5.90;;
26474;SDS011;14161;52.270;10.334;2023-06-22T06:01:06;5.15;;;4.65;;
26474;SDS011;14161;52.270;10.334;2023-06-22T06:03:32;7.95;;;5.30;;
26474;SDS011;14161;52.270;10.334;2023-06-22T06:05:57;8.45;;;5.70;;
26474;SDS011;14161;52.270;10.334;2023-06-22T06:08:23;5.85;;;5.25;;
26474;SDS011;14161;52.270;10.334;2023-06-22T06:10:48;5.97;;;5.22;;
26474;SDS011;14161;52.270;10.334;2023-06-22T06:13:14;5.72;;;4.60;;
26474;SDS011;14161;52.270;10.334;2023-06-22T06:15:39;6.88;;;5.07;;
26474;SDS011;14161;52.270;10.334;2023-06-22T06:18:05;7.13;;;5.00;;
26474;SDS011;14161;52.270;10.334;2023-06-22T06:20:31;6.22;;;4.95;;
26474;SDS011;14161;52.270;10.334;2023-06-22T06:22:57;5.70;;;4.97;;
26474;SDS011;14161;52.270;10.334;2023-06-22T06:25:22;6.72;;;4.78;;
26474;SDS011;14161;52.270;10.334;2023-06-22T06:27:49;5.97;;;5.38;;
26474;SDS011;14161;52.270;10.334;2023-06-22T06:30:16;5.35;;;4.68;;
26474;SDS011;14161;52.270;10.334;2023-06-22T06:32:42;5.43;;;4.88;;
26474;SDS011;14161;52.270;10.334;2023-06-22T06:35:10;4.72;;;4.32;;
26474;SDS011;14161;52.270;10.334;2023-06-22T06:37:37;4.70;;;4.30;;
26474;SDS011;14161;52.270;10.334;2023-06-22T06:40:06;5.35;;;4.85;;
26474;SDS011;14161;52.270;10.334;2023-06-22T06:42:38;6.65;;;5.15;;
26474;SDS011;14161;52.270;10.334;2023-06-22T06:45:10;6.32;;;4.57;;
26474;SDS011;14161;52.270;10.334;2023-06-22T06:47:40;4.95;;;4.30;;
26474;SDS011;14161;52.270;10.334;2023-06-22T06:50:06;4.97;;;4.47;;
26474;SDS011;14161;52.270;10.334;2023-06-22T06:52:32;4.95;;;4.50;;
26474;SDS011;14161;52.270;10.334;2023-06-22T06:54:58;5.53;;;4.50;;
26474;SDS011;14161;52.270;10.334;2023-06-22T06:57:23;8.13;;;4.85;;
26474;SDS011;14161;52.270;10.334;2023-06-22T06:59:54;5.28;;;4.63;;
26474;SDS011;14161;52.270;10.334;2023-06-22T07:02:20;5.00;;;4.50;;
26474;SDS011;14161;52.270;10.334;2023-06-22T07:04:46;5.22;;;4.40;;
26474;SDS011;14161;52.270;10.334;2023-06-22T07:07:12;7.75;;;4.50;;
26474;SDS011;14161;52.270;10.334;2023-06-22T07:09:37;4.63;;;4.07;;
26474;SDS011;14161;52.270;10.334;2023-06-22T07:12:03;5.68;;;3.80;;
26474;SDS011;14161;52.270;10.334;2023-06-22T07:14:28;5.65;;;3.72;;
26474;SDS011;14161;52.270;10.334;2023-06-22T07:16:54;4.93;;;4.43;;
26474;SDS011;14161;52.270;10.334;2023-06-22T07:19:26;4.20;;;3.80;;
26474;SDS011;14161;52.270;10.334;2023-06-22T07:21:53;4.80;;;4.38;;
26474;SDS011;14161;52.270;10.334;2023-06-22T07:24:19;5.15;;;4.00;;
26474;SDS011;14161;52.270;10.334;2023-06-22T07:26:45;5.25;;;4.15;;
26474;SDS011;14161;52.270;10.334;2023-06-22T07:29:13;5.03;;;4.40;;
26474;SDS011;14161;52.270;10.334;2023-06-22T07:31:39;5.80;;;4.50;;
26474;SDS011;14161;52.270;10.334;2023-06-22T07:34:06;5.70;;;5.00;;
26474;SDS011;14161;52.270;10.334;2023-06-22T07:36:31;8.77;;;4.38;;
26474;SDS011;14161;52.270;10.334;2023-06-22T07:38:57;5.88;;;4.18;;
26474;SDS011;14161;52.270;10.334;2023-06-22T07:41:22;5.07;;;4.50;;
26474;SDS011;14161;52.270;10.334;2023-06-22T07:43:48;10.38;;;5.07;;
26474;SDS011;14161;52.270;10.334;2023-06-22T07:46:13;5.32;;;4.53;;
26474;SDS011;14161;52.270;10.334;2023-06-22T07:48:39;5.13;;;4.63;;
26474;SDS011;14161;52.270;10.334;2023-06-22T07:51:06;7.03;;;4.93;;
26474;SDS011;14161;52.270;10.334;2023-06-22T07:53:32;6.68;;;5.00;;
26474;SDS011;14161;52.270;10.334;2023-06-22T07:55:57;5.75;;;5.15;;
26474;SDS011;14161;52.270;10.334;2023-06-22T07:58:23;6.47;;;4.82;;
26474;SDS011;14161;52.270;10.334;2023-06-22T08:00:48;6.53;;;5.53;;
26474;SDS011;14161;52.270;10.334;2023-06-22T08:03:14;6.50;;;5.10;;
26474;SDS011;14161;52.270;10.334;2023-06-22T08:05:40;6.57;;;5.18;;
26474;SDS011;14161;52.270;10.334;2023-06-22T08:08:06;5.78;;;5.28;;
26474;SDS011;14161;52.270;10.334;2023-06-22T08:10:31;6.30;;;5.63;;
26474;SDS011;14161;52.270;10.334;2023-06-22T08:12:56;5.70;;;5.13;;
26474;SDS011;14161;52.270;10.334;2023-06-22T08:15:22;5.90;;;5.40;;
26474;SDS011;14161;52.270;10.334;2023-06-22T08:17:47;6.43;;;5.82;;
26474;SDS011;14161;52.270;10.334;2023-06-22T08:20:13;6.78;;;5.78;;
26474;SDS011;14161;52.270;10.334;2023-06-22T08:22:39;8.30;;;7.00;;
26474;SDS011;14161;52.270;10.334;2023-06-22T08:25:05;6.57;;;5.97;;
26474;SDS011;14161;52.270;10.334;2023-06-22T08:27:31;6.57;;;5.95;;
26474;SDS011;14161;52.270;10.334;2023-06-22T08:29:57;6.75;;;6.05;;
26474;SDS011;14161;52.270;10.334;2023-06-22T08:32:24;6.85;;;6.25;;
26474;SDS011;14161;52.270;10.334;2023-06-22T08:34:52;7.10;;;6.40;;
26474;SDS011;14161;52.270;10.334;2023-06-22T08:37:21;7.63;;;6.78;;
26474;SDS011;14161;52.270;10.334;2023-06-22T08:39:49;9.98;;;6.50;;
26474;SDS011;14161;52.270;10.334;2023-06-22T08:42:15;7.82;;;6.45;;
26474;SDS011;14161;52.270;10.334;2023-06-22T08:44:40;7.47;;;6.78;;
26474;SDS011;14161;52.270;10.334;2023-06-22T08:47:06;7.45;;;6.63;;
26474;SDS011;14161;52.270;10.334;2023-06-22T08:49:32;7.47;;;6.78;;
26474;SDS011;14161;52.270;10.334;2023-06-22T08:51:57;9.13;;;7.07;;
26474;SDS011;14161;52.270;10.334;2023-06-22T08:54:22;9.80;;;7.68;;
26474;SDS011;14161;52.270;10.334;2023-06-22T08:56:48;10.70;;;8.38;;
26474;SDS011;14161;52.270;10.334;2023-06-22T08:59:13;7.88;;;6.93;;
26474;SDS011;14161;52.270;10.334;2023-06-22T09:01:39;8.15;;;7.35;;
26474;SDS011;14161;52.270;10.334;2023-06-22T09:04:04;8.20;;;7.40;;
26474;SDS011;14161;52.270;10.334;2023-06-22T09:06:31;8.48;;;7.68;;
26474;SDS011;14161;52.270;10.334;2023-06-22T09:08:57;8.90;;;7.32;;
26474;SDS011;14161;52.270;10.334;2023-06-22T09:11:24;9.25;;;6.45;;
26474;SDS011;14161;52.270;10.334;2023-06-22T09:13:50;7.50;;;6.78;;
26474;SDS011;14161;52.270;10.334;2023-06-22T09:16:17;8.93;;;7.10;;
26474;SDS011;14161;52.270;10.334;2023-06-22T09:18:42;7.28;;;6.57;;
26474;SDS011;14161;52.270;10.334;2023-06-22T09:21:10;7.65;;;6.95;;
26474;SDS011;14161;52.270;10.334;2023-06-22T09:23:36;7.72;;;7.00;;
26474;SDS011;14161;52.270;10.334;2023-06-22T09:26:01;7.82;;;7.13;;
26474;SDS011;14161;52.270;10.334;2023-06-22T09:28:30;9.85;;;7.80;;
26474;SDS011;14161;52.270;10.334;2023-06-22T09:30:56;8.15;;;7.45;;
26474;SDS011;14161;52.270;10.334;2023-06-22T09:33:23;8.65;;;7.75;;
26474;SDS011;14161;52.270;10.334;2023-06-22T09:35:49;10.07;;;8.23;;
26474;SDS011;14161;52.270;10.334;2023-06-22T09:38:16;7.78;;;6.97;;
26474;SDS011;14161;52.270;10.334;2023-06-22T09:40:42;8.93;;;7.68;;
26474;SDS011;14161;52.270;10.334;2023-06-22T09:43:07;8.88;;;8.00;;
26474;SDS011;14161;52.270;10.334;2023-06-22T09:45:33;7.93;;;7.22;;
26474;SDS011;14161;52.270;10.334;2023-06-22T09:47:58;7.75;;;7.05;;
26474;SDS011;14161;52.270;10.334;2023-06-22T09:50:27;8.98;;;8.07;;
26474;SDS011;14161;52.270;10.334;2023-06-22T09:52:52;8.23;;;7.38;;
26474;SDS011;14161;52.270;10.334;2023-06-22T09:55:23;7.80;;;7.10;;
26474;SDS011;14161;52.270;10.334;2023-06-22T09:57:48;8.25;;;7.40;;
26474;SDS011;14161;52.270;10.334;2023-06-22T10:00:15;9.02;;;7.72;;
26474;SDS011;14161;52.270;10.334;2023-06-22T10:02:42;8.75;;;7.85;;
26474;SDS011;14161;52.270;10.334;2023-06-22T10:05:07;8.55;;;7.68;;
26474;SDS011;14161;52.270;10.334;2023-06-22T10:07:33;8.50;;;7.63;;
26474;SDS011;14161;52.270;10.334;2023-06-22T10:09:59;7.63;;;6.93;;
26474;SDS011;14161;52.270;10.334;2023-06-22T10:12:27;10.60;;;7.63;;
26474;SDS011;14161;52.270;10.334;2023-06-22T10:14:53;11.10;;;8.18;;
26474;SDS011;14161;52.270;10.334;2023-06-22T10:17:18;8.65;;;7.65;;
26474;SDS011;14161;52.270;10.334;2023-06-22T10:19:44;7.68;;;6.97;;
26474;SDS011;14161;52.270;10.334;2023-06-22T10:22:09;8.57;;;7.78;;
26474;SDS011;14161;52.270;10.334;2023-06-22T10:24:35;7.90;;;7.20;;
26474;SDS011;14161;52.270;10.334;2023-06-22T10:27:00;7.40;;;6.78;;
26474;SDS011;14161;52.270;10.334;2023-06-22T10:29:26;8.73;;;7.78;;
26474;SDS011;14161;52.270;10.334;2023-06-22T10:31:51;8.05;;;7.25;;
26474;SDS011;14161;52.270;10.334;2023-06-22T10:34:17;7.90;;;7.10;;
26474;SDS011;14161;52.270;10.334;2023-06-22T10:36:42;8.75;;;7.43;;
26474;SDS011;14161;52.270;10.334;2023-06-22T10:39:08;7.22;;;6.55;;
26474;SDS011;14161;52.270;10.334;2023-06-22T10:41:33;8.35;;;7.55;;
26474;SDS011;14161;52.270;10.334;2023-06-22T10:43:59;7.80;;;6.80;;
26474;SDS011;14161;52.270;10.334;2023-06-22T10:46:25;6.93;;;6.22;;
26474;SDS011;14161;52.270;10.334;2023-06-22T10:48:51;7.95;;;7.20;;
26474;SDS011;14161;52.270;10.334;2023-06-22T10:51:19;8.73;;;7.93;;
26474;SDS011;14161;52.270;10.334;2023-06-22T10:53:45;7.82;;;7.13;;
26474;SDS011;14161;52.270;10.334;2023-06-22T10:56:10;12.73;;;8.40;;
26474;SDS011;14161;52.270;10.334;2023-06-22T10:58:38;8.45;;;7.68;;
26474;SDS011;14161;52.270;10.334;2023-06-22T11:01:04;7.80;;;7.10;;
26474;SDS011;14161;52.270;10.334;2023-06-22T11:03:30;8.18;;;7.40;;
26474;SDS011;14161;52.270;10.334;2023-06-22T11:05:55;7.95;;;7.15;;
26474;SDS011;14161;52.270;10.334;2023-06-22T11:08:26;7.07;;;6.40;;
26474;SDS011;14161;52.270;10.334;2023-06-22T11:10:51;8.20;;;7.40;;
26474;SDS011;14161;52.270;10.334;2023-06-22T11:13:17;8.02;;;7.22;;
26474;SDS011;14161;52.270;10.334;2023-06-22T11:15:43;8.07;;;7.28;;
26474;SDS011;14161;52.270;10.334;2023-06-22T11:18:08;9.85;;;6.70;;
26474;SDS011;14161;52.270;10.334;2023-06-22T11:20:34;8.10;;;7.20;;
26474;SDS011;14161;52.270;10.334;2023-06-22T11:23:04;6.80;;;6.20;;
26474;SDS011;14161;52.270;10.334;2023-06-22T11:25:30;6.82;;;6.13;;
26474;SDS011;14161;52.270;10.334;2023-06-22T11:28:03;7.50;;;6.80;;
26474;SDS011;14161;52.270;10.334;2023-06-22T11:30:29;7.93;;;7.22;;
26474;SDS011;14161;52.270;10.334;2023-06-22T11:32:56;7.65;;;6.85;;
26474;SDS011;14161;52.270;10.334;2023-06-22T11:35:22;9.10;;;6.53;;
26474;SDS011;14161;52.270;10.334;2023-06-22T11:37:48;7.82;;;7.00;;
26474;SDS011;14161;52.270;10.334;2023-06-22T11:40:16;7.25;;;6.55;;
26474;SDS011;14161;52.270;10.334;2023-06-22T11:42:46;7.60;;;6.90;;
26474;SDS011;14161;52.270;10.334;2023-06-22T11:45:11;7.22;;;6.40;;
26474;SDS011;14161;52.270;10.334;2023-06-22T11:47:37;7.20;;;6.50;;
26474;SDS011;14161;52.270;10.334;2023-06-22T11:50:04;7.00;;;6.40;;
26474;SDS011;14161;52.270;10.334;2023-06-22T11:52:31;6.38;;;5.68;;
26474;SDS011;14161;52.270;10.334;2023-06-22T11:54:57;8.27;;;6.78;;
26474;SDS011;14161;52.270;10.334;2023-06-22T11:57:24;6.45;;;5.82;;
26474;SDS011;14161;52.270;10.334;2023-06-22T11:59:49;6.50;;;5.80;;
26474;SDS011;14161;52.270;10.334;2023-06-22T12:02:15;8.18;;;6.32;;
26474;SDS011;14161;52.270;10.334;2023-06-22T12:04:40;6.80;;;6.05;;
26474;SDS011;14161;52.270;10.334;2023-06-22T12:07:06;6.68;;;6.07;;
26474;SDS011;14161;52.270;10.334;2023-06-22T12:09:32;6.07;;;5.57;;
26474;SDS011;14161;52.270;10.334;2023-06-22T12:12:00;6.38;;;5.78;;
26474;SDS011;14161;52.270;10.334;2023-06-22T12:14:26;6.35;;;5.75;;
26474;SDS011;14161;52.270;10.334;2023-06-22T12:16:51;6.78;;;6.07;;
26474;SDS011;14161;52.270;10.334;2023-06-22T12:19:17;10.80;;;6.38;;
26474;SDS011;14161;52.270;10.334;2023-06-22T12:21:42;6.60;;;5.90;;
26474;SDS011;14161;52.270;10.334;2023-06-22T12:24:10;6.20;;;5.60;;
26474;SDS011;14161;52.270;10.334;2023-06-22T12:26:36;7.03;;;5.75;;
26474;SDS011;14161;52.270;10.334;2023-06-22T12:29:01;6.07;;;5.47;;
26474;SDS011;14161;52.270;10.334;2023-06-22T12:31:27;6.60;;;6.00;;
26474;SDS011;14161;52.270;10.334;2023-06-22T12:33:52;7.15;;;5.53;;
26474;SDS011;14161;52.270;10.334;2023-06-22T12:36:18;8.60;;;7.00;;
26474;SDS011;14161;52.270;10.334;2023-06-22T12:38:43;6.68;;;6.07;;
26474;SDS011;14161;52.270;10.334;2023-06-22T12:41:09;6.35;;;5.70;;
26474;SDS011;14161;52.270;10.334;2023-06-22T12:43:34;6.20;;;5.60;;
26474;SDS011;14161;52.270;10.334;2023-06-22T12:46:00;6.82;;;6.03;;
26474;SDS011;14161;52.270;10.334;2023-06-22T12:48:25;5.80;;;5.30;;
26474;SDS011;14161;52.270;10.334;2023-06-22T12:50:52;6.32;;;5.50;;
26474;SDS011;14161;52.270;10.334;2023-06-22T12:53:17;6.18;;;5.68;;
26474;SDS011;14161;52.270;10.334;2023-06-22T12:55:43;6.05;;;5.55;;
26474;SDS011;14161;52.270;10.334;2023-06-22T12:58:08;6.40;;;5.80;;
26474;SDS011;14161;52.270;10.334;2023-06-22T13:00:34;5.85;;;5.25;;
26474;SDS011;14161;52.270;10.334;2023-06-22T13:02:59;6.57;;;5.88;;
26474;SDS011;14161;52.270;10.334;2023-06-22T13:05:25;6.00;;;5.50;;
26474;SDS011;14161;52.270;10.334;2023-06-22T13:07:50;5.88;;;5.28;;
26474;SDS011;14161;52.270;10.334;2023-06-22T13:10:16;6.93;;;5.20;;
26474;SDS011;14161;52.270;10.334;2023-06-22T13:12:42;5.90;;;5.35;;
26474;SDS011;14161;52.270;10.334;2023-06-22T13:15:07;6.43;;;4.93;;
26474;SDS011;14161;52.270;10.334;2023-06-22T13:17:33;5.60;;;5.05;;
26474;SDS011;14161;52.270;10.334;2023-06-22T13:19:58;5.35;;;4.85;;
26474;SDS011;14161;52.270;10.334;2023-06-22T13:22:29;5.28;;;4.78;;
26474;SDS011;14161;52.270;10.334;2023-06-22T13:24:55;5.55;;;4.63;;
26474;SDS011;14161;52.270;10.334;2023-06-22T13:27:20;5.72;;;5.22;;
26474;SDS011;14161;52.270;10.334;2023-06-22T13:29:46;5.35;;;4.85;;
26474;SDS011;14161;52.270;10.334;2023-06-22T13:32:11;5.63;;;4.95;;
26474;SDS011;14161;52.270;10.334;2023-06-22T13:34:37;6.60;;;5.82;;
26474;SDS011;14161;52.270;10.334;2023-06-22T13:37:02;7.05;;;6.45;;
26474;SDS011;14161;52.270;10.334;2023-06-22T13:39:28;7.53;;;5.80;;
26474;SDS011;14161;52.270;10.334;2023-06-22T13:41:54;7.43;;;6.18;;
26474;SDS011;14161;52.270;10.334;2023-06-22T13:44:19;7.15;;;5.68;;
26474;SDS011;14161;52.270;10.334;2023-06-22T13:46:47;6.22;;;5.63;;
26474;SDS011;14161;52.270;10.334;2023-06-22T13:49:15;6.53;;;5.93;;
26474;SDS011;14161;52.270;10.334;2023-06-22T13:51:41;6.82;;;6.00;;
26474;SDS011;14161;52.270;10.334;2023-06-22T13:54:06;7.05;;;6.35;;
26474;SDS011;14161;52.270;10.334;2023-06-22T13:56:32;6.55;;;5.95;;
26474;SDS011;14161;52.270;10.334;2023-06-22T13:58:58;6.90;;;5.55;;
26474;SDS011;14161;52.270;10.334;2023-06-22T14:01:23;6.40;;;5.72;;
26474;SDS011;14161;52.270;10.334;2023-06-22T14:03:49;6.70;;;6.00;;
26474;SDS011;14161;52.270;10.334;2023-06-22T14:06:14;7.65;;;5.50;;
26474;SDS011;14161;52.270;10.334;2023-06-22T14:08:40;7.28;;;6.68;;
26474;SDS011;14161;52.270;10.334;2023-06-22T14:11:05;6.53;;;5.93;;
26474;SDS011;14161;52.270;10.334;2023-06-22T14:13:30;7.32;;;6.53;;
26474;SDS011;14161;52.270;10.334;2023-06-22T14:15:56;6.72;;;6.18;;
26474;SDS011;14161;52.270;10.334;2023-06-22T14:18:21;8.25;;;6.13;;
26474;SDS011;14161;52.270;10.334;2023-06-22T14:20:48;8.25;;;6.90;;
26474;SDS011;14161;52.270;10.334;2023-06-22T14:23:13;7.78;;;6.10;;
26474;SDS011;14161;52.270;10.334;2023-06-22T14:25:39;6.50;;;5.85;;
26474;SDS011;14161;52.270;10.334;2023-06-22T14:28:05;6.85;;;6.22;;
26474;SDS011;14161;52.270;10.334;2023-06-22T14:30:30;7.78;;;6.85;;
26474;SDS011;14161;52.270;10.334;2023-06-22T14:32:56;7.30;;;6.45;;
26474;SDS011;14161;52.270;10.334;2023-06-22T14:35:21;8.60;;;6.80;;